createdAt,value
2018-08-20T00:00:59.296Z,101405.63
2018-08-20T00:03:27.625Z,101402.77
2018-08-20T00:05:55.949Z,101404.55
2018-08-20T00:08:24.859Z,101401.33
2018-08-20T00:10:53.182Z,101397.80
2018-08-20T00:13:21.510Z,101395.53
2018-08-20T00:15:49.248Z,101393.27
2018-08-20T00:18:18.147Z,101387.18
2018-08-20T00:20:46.474Z,101387.05
2018-08-20T00:23:14.213Z,101385.01
2018-08-20T00:25:42.537Z,101381.50
2018-08-20T00:28:11.439Z,101381.33
2018-08-20T00:30:40.503Z,101376.70
2018-08-20T00:33:08.082Z,101375.20
2018-08-20T00:35:36.405Z,101373.70
2018-08-20T00:38:04.143Z,101372.82
2018-08-20T00:40:32.467Z,101365.56
2018-08-20T00:43:00.804Z,101362.38
2018-08-20T00:45:29.134Z,101359.39
2018-08-20T00:47:57.463Z,101354.34
2018-08-20T00:50:25.786Z,101345.98
2018-08-20T00:52:54.699Z,101344.80
2018-08-20T00:55:22.451Z,101346.55
2018-08-20T00:57:51.364Z,101346.05
2018-08-20T01:00:19.828Z,101345.84
2018-08-20T01:02:48.148Z,101344.28
2018-08-20T01:05:16.493Z,101340.84
2018-08-20T01:07:44.221Z,101335.32
2018-08-20T01:10:12.546Z,101337.77
2018-08-20T01:12:40.867Z,101332.67
2018-08-20T01:15:09.771Z,101333.95
2018-08-20T01:17:38.103Z,101325.81
2018-08-20T01:20:05.843Z,101323.66
2018-08-20T01:22:34.749Z,101322.34
2018-08-20T01:25:03.070Z,101325.14
2018-08-20T01:27:30.813Z,101326.25
2018-08-20T01:29:59.139Z,101324.39
2018-08-20T01:32:27.461Z,101322.13
2018-08-20T01:34:56.374Z,101312.14
2018-08-20T01:37:24.694Z,101313.52
2018-08-20T01:39:53.024Z,101309.36
2018-08-20T01:42:21.344Z,101307.41
2018-08-20T01:44:49.670Z,101304.27
2018-08-20T01:47:17.419Z,101299.30
2018-08-20T01:49:46.316Z,101294.38
2018-08-20T01:52:14.639Z,101294.61
2018-08-20T01:54:42.376Z,101285.07
2018-08-20T01:57:10.705Z,101287.06
2018-08-20T01:59:39.030Z,101281.27
2018-08-20T02:02:07.985Z,101273.20
2018-08-20T02:04:35.723Z,101271.53
2018-08-20T02:07:04.048Z,101264.34
2018-08-20T02:09:32.373Z,101262.33
2018-08-20T02:12:00.697Z,101261.43
2018-08-20T02:14:29.615Z,101258.94
2018-08-20T02:16:57.923Z,101259.39
2018-08-20T02:19:26.031Z,101256.33
2018-08-20T02:21:54.346Z,101258.39
2018-08-20T02:24:23.237Z,101257.06
2018-08-20T02:26:51.544Z,101254.77
2018-08-20T02:29:19.298Z,101252.66
2018-08-20T02:31:48.182Z,101248.84
2018-08-20T02:34:15.920Z,101244.36
2018-08-20T02:36:44.816Z,101237.08
2018-08-20T02:39:13.137Z,101233.02
2018-08-20T02:41:41.450Z,101230.58
2018-08-20T02:44:09.186Z,101225.00
2018-08-20T02:46:37.501Z,101224.50
2018-08-20T02:49:06.397Z,101217.75
2018-08-20T02:51:34.129Z,101213.45
2018-08-20T02:54:02.442Z,101210.05
2018-08-20T02:56:31.328Z,101208.06
2018-08-20T02:58:59.062Z,101204.09
2018-08-20T03:01:27.388Z,101202.63
2018-08-20T03:03:56.305Z,101202.09
2018-08-20T03:06:24.042Z,101198.62
2018-08-20T03:08:52.361Z,101193.59
2018-08-20T03:11:20.676Z,101186.67
2018-08-20T03:13:49.049Z,101181.06
2018-08-20T03:16:17.485Z,101180.20
2018-08-20T03:18:46.252Z,101177.45
2018-08-20T03:21:13.977Z,101177.78
2018-08-20T03:23:42.286Z,101176.41
2018-08-20T03:26:10.621Z,101174.12
2018-08-20T03:28:39.498Z,101173.56
2018-08-20T03:31:07.229Z,101171.59
2018-08-20T03:33:36.129Z,101166.30
2018-08-20T03:36:04.435Z,101161.89
2018-08-20T03:38:32.739Z,101159.47
2018-08-20T03:41:01.062Z,101156.45
2018-08-20T03:43:28.788Z,101153.20
2018-08-20T03:45:57.105Z,101143.11
2018-08-20T03:48:25.997Z,101141.80
2018-08-20T03:50:53.736Z,101143.44
2018-08-20T03:53:22.049Z,101142.55
2018-08-20T03:55:50.426Z,101140.45
2018-08-20T03:58:19.316Z,101139.07
2018-08-20T04:00:47.645Z,101137.55
2018-08-20T04:03:15.397Z,101139.78
2018-08-20T04:08:12.077Z,101134.70
2018-08-20T04:10:40.991Z,101136.53
2018-08-20T04:13:09.330Z,101130.31
2018-08-20T04:15:37.645Z,101129.72
2018-08-20T04:18:05.391Z,101127.89
2018-08-20T04:20:34.287Z,101123.84
2018-08-20T04:23:02.073Z,101122.44
2018-08-20T04:25:30.339Z,101114.16
2018-08-20T04:27:58.649Z,101115.78
2018-08-20T04:30:27.564Z,101111.91
2018-08-20T04:32:55.864Z,101111.77
2018-08-20T04:35:24.175Z,101105.42
2018-08-20T04:37:52.484Z,101102.89
2018-08-20T04:40:20.226Z,101103.97
2018-08-20T04:42:49.123Z,101100.83
2018-08-20T04:45:16.862Z,101098.39
2018-08-20T04:47:46.384Z,101095.37
2018-08-20T04:50:14.473Z,101090.68
2018-08-20T04:52:43.274Z,101087.77
2018-08-20T04:55:11.587Z,101084.29
2018-08-20T04:57:39.610Z,101083.94
2018-08-20T05:00:08.220Z,101084.09
2018-08-20T05:02:36.137Z,101082.62
2018-08-20T05:05:04.859Z,101075.64
2018-08-20T05:07:32.628Z,101076.60
2018-08-20T05:10:01.628Z,101072.45
2018-08-20T05:12:29.854Z,101078.16
2018-08-20T05:14:57.590Z,101072.37
2018-08-20T05:17:26.482Z,101067.32
2018-08-20T05:19:54.216Z,101065.12
2018-08-20T05:22:23.111Z,101060.35
2018-08-20T05:24:51.652Z,101062.48
2018-08-20T05:27:19.170Z,101057.83
2018-08-20T05:29:47.464Z,101053.70
2018-08-20T05:32:15.787Z,101053.75
2018-08-20T05:34:44.681Z,101049.77
2018-08-20T05:37:12.427Z,101053.36
2018-08-20T05:39:40.748Z,101050.92
2018-08-20T05:42:09.645Z,101047.03
2018-08-20T05:44:37.385Z,101046.35
2018-08-20T05:47:05.689Z,101047.70
2018-08-20T05:49:34.011Z,101044.16
2018-08-20T05:52:02.339Z,101044.46
2018-08-20T05:54:30.649Z,101050.27
2018-08-20T05:56:58.962Z,101043.05
2018-08-20T05:59:27.856Z,101041.90
2018-08-20T06:01:56.179Z,101043.84
2018-08-20T06:04:23.914Z,101043.11
2018-08-20T06:06:52.229Z,101045.91
2018-08-20T06:09:20.608Z,101048.86
2018-08-20T06:11:48.931Z,101058.56
2018-08-20T06:14:17.242Z,101065.29
2018-08-20T06:16:46.132Z,101058.00
2018-08-20T06:19:14.449Z,101058.95
2018-08-20T06:21:42.203Z,101055.91
2018-08-20T06:24:11.114Z,101062.52
2018-08-20T06:26:38.845Z,101059.16
2018-08-20T06:29:07.172Z,101063.91
2018-08-20T06:31:36.064Z,101067.89
2018-08-20T06:34:04.388Z,101074.16
2018-08-20T06:36:33.497Z,101065.45
2018-08-20T06:39:01.822Z,101060.87
2018-08-20T06:41:30.177Z,101061.84
2018-08-20T06:43:58.446Z,101060.09
2018-08-20T06:46:26.760Z,101067.69
2018-08-20T06:48:55.301Z,101066.39
2018-08-20T06:51:23.387Z,101069.97
2018-08-20T06:53:52.521Z,101068.31
2018-08-20T06:56:20.842Z,101066.60
2018-08-20T06:58:49.175Z,101070.20
2018-08-20T07:01:16.931Z,101071.98
2018-08-20T07:03:45.226Z,101071.80
2018-08-20T07:06:13.576Z,101071.34
2018-08-20T07:08:41.867Z,101071.30
2018-08-20T07:11:10.820Z,101065.70
2018-08-20T07:13:38.555Z,101063.59
2018-08-20T07:16:07.458Z,101070.85
2018-08-20T07:18:36.101Z,101070.48
2018-08-20T07:21:03.854Z,101073.20
2018-08-20T07:23:32.310Z,101061.05
2018-08-20T07:26:00.487Z,101058.08
2018-08-20T07:28:29.388Z,101067.49
2018-08-20T07:30:57.126Z,101062.34
2018-08-20T07:33:26.013Z,101057.78
2018-08-20T07:35:54.325Z,101061.86
2018-08-20T07:38:22.642Z,101054.91
2018-08-20T07:40:50.950Z,101062.62
2018-08-20T07:43:19.257Z,101063.47
2018-08-20T07:45:47.005Z,101065.20
2018-08-20T07:48:15.323Z,101058.84
2018-08-20T07:50:44.222Z,101057.16
2018-08-20T07:53:12.005Z,101054.02
2018-08-20T07:55:40.869Z,101055.83
2018-08-20T07:58:09.150Z,101052.90
2018-08-20T08:00:38.049Z,101052.19
2018-08-20T08:03:06.371Z,101046.05
2018-08-20T08:05:34.101Z,101039.70
2018-08-20T08:08:02.425Z,101040.84
2018-08-20T08:10:30.741Z,101047.94
2018-08-20T08:12:59.104Z,101044.02
2018-08-20T08:15:27.413Z,101062.95
2018-08-20T08:17:55.726Z,101044.73
2018-08-20T08:20:24.380Z,101049.63
2018-08-20T08:22:53.265Z,101045.36
2018-08-20T08:25:21.580Z,101046.12
2018-08-20T08:27:49.320Z,101043.66
2018-08-20T08:30:18.217Z,101037.30
2018-08-20T08:32:45.948Z,101047.56
2018-08-20T08:35:14.902Z,101025.99
2018-08-20T08:37:42.646Z,101051.63
2018-08-20T08:40:11.537Z,101034.41
2018-08-20T08:42:39.869Z,101053.92
2018-08-20T08:45:07.605Z,101035.92
2018-08-20T08:47:36.496Z,101049.42
2018-08-20T08:50:04.240Z,101038.33
2018-08-20T08:52:33.138Z,101033.06
2018-08-20T08:55:01.461Z,101041.80
2018-08-20T08:57:29.199Z,101032.84
2018-08-20T08:59:58.363Z,101033.61
2018-08-20T09:02:26.688Z,101032.19
2018-08-20T09:04:54.412Z,101035.74
2018-08-20T09:07:23.358Z,101039.56
2018-08-20T09:09:51.093Z,101024.03
2018-08-20T09:12:19.993Z,101037.06
2018-08-20T09:14:47.799Z,101039.98
2018-08-20T09:17:16.695Z,101044.22
2018-08-20T09:19:45.076Z,101034.30
2018-08-20T09:22:13.394Z,101044.36
2018-08-20T09:24:41.705Z,101047.16
2018-08-20T09:27:10.019Z,101040.28
2018-08-20T09:29:38.336Z,101045.52
2018-08-20T09:32:07.361Z,101038.03
2018-08-20T09:34:35.862Z,101051.37
2018-08-20T09:37:04.170Z,101036.41
2018-08-20T09:39:32.490Z,101035.12
2018-08-20T09:42:00.802Z,101041.02
2018-08-20T09:44:28.535Z,101055.27
2018-08-20T09:46:56.846Z,101055.46
2018-08-20T09:49:25.269Z,101045.73
2018-08-20T09:51:53.464Z,101060.58
2018-08-20T09:54:21.937Z,101051.28
2018-08-20T09:56:50.665Z,101053.97
2018-08-20T09:59:18.411Z,101056.74
2018-08-20T10:01:47.312Z,101071.38
2018-08-20T10:04:15.038Z,101055.77
2018-08-20T10:06:43.936Z,101057.80
2018-08-20T10:09:11.672Z,101054.95
2018-08-20T10:11:41.347Z,101057.16
2018-08-20T10:14:09.088Z,101077.08
2018-08-20T10:16:38.015Z,101069.53
2018-08-20T10:19:05.747Z,101069.86
2018-08-20T10:21:34.071Z,101059.50
2018-08-20T10:24:02.382Z,101065.95
2018-08-20T10:26:30.706Z,101070.11
2018-08-20T10:28:59.600Z,101072.84
2018-08-20T10:31:27.911Z,101080.53
2018-08-20T10:33:56.268Z,101088.05
2018-08-20T10:36:24.579Z,101088.84
2018-08-20T10:38:52.351Z,101089.27
2018-08-20T10:41:21.360Z,101098.84
2018-08-20T10:43:49.714Z,101093.14
2018-08-20T10:46:17.391Z,101080.92
2018-08-20T10:48:46.304Z,101089.28
2018-08-20T10:51:14.609Z,101098.39
2018-08-20T10:53:42.931Z,101092.36
2018-08-20T10:56:10.693Z,101095.98
2018-08-20T10:58:39.001Z,101103.55
2018-08-20T11:01:07.902Z,101101.25
2018-08-20T11:03:35.649Z,101107.28
2018-08-20T11:06:03.981Z,101104.17
2018-08-20T11:08:32.296Z,101103.81
2018-08-20T11:11:00.906Z,101107.43
2018-08-20T11:13:28.924Z,101110.16
2018-08-20T11:15:57.238Z,101113.52
2018-08-20T11:18:26.431Z,101105.43
2018-08-20T11:20:54.688Z,101106.35
2018-08-20T11:23:23.001Z,101104.30
2018-08-20T11:25:50.741Z,101101.12
2018-08-20T11:28:19.641Z,101112.90
2018-08-20T11:30:47.962Z,101111.27
2018-08-20T11:33:16.269Z,101115.80
2018-08-20T11:35:44.006Z,101105.17
2018-08-20T11:38:12.901Z,101118.46
2018-08-20T11:40:40.649Z,101135.26
2018-08-20T11:43:08.975Z,101122.60
2018-08-20T11:45:37.274Z,101123.86
2018-08-20T11:48:06.166Z,101149.44
2018-08-20T11:50:33.901Z,101130.26
2018-08-20T11:53:02.222Z,101132.89
2018-08-20T11:55:30.534Z,101140.82
2018-08-20T11:57:58.846Z,101127.78
2018-08-20T12:00:27.740Z,101143.66
2018-08-20T12:02:56.054Z,101120.56
2018-08-20T12:05:24.369Z,101138.25
2018-08-20T12:07:52.103Z,101127.20
2018-08-20T12:10:21.015Z,101125.95
2018-08-20T12:12:48.736Z,101125.55
2018-08-20T12:15:17.041Z,101120.07
2018-08-20T12:17:45.370Z,101125.96
2018-08-20T12:20:14.307Z,101120.78
2018-08-20T12:22:42.044Z,101127.13
2018-08-20T12:25:10.956Z,101108.73
2018-08-20T12:27:39.282Z,101114.84
2018-08-20T12:30:07.601Z,101112.38
2018-08-20T12:32:35.932Z,101111.61
2018-08-20T12:35:04.245Z,101105.88
2018-08-20T12:37:32.779Z,101109.72
2018-08-20T12:40:00.337Z,101114.03
2018-08-20T12:42:28.644Z,101113.81
2018-08-20T12:44:57.500Z,101115.05
2018-08-20T12:47:25.820Z,101115.05
2018-08-20T12:49:53.566Z,101112.09
2018-08-20T12:52:22.474Z,101104.39
2018-08-20T12:54:50.789Z,101101.43
2018-08-20T12:57:19.124Z,101119.02
2018-08-20T12:59:46.850Z,101121.06
2018-08-20T13:02:15.169Z,101121.25
2018-08-20T13:04:44.454Z,101125.30
2018-08-20T13:07:13.345Z,101115.56
2018-08-20T13:09:41.659Z,101122.09
2018-08-20T13:12:09.394Z,101113.10
2018-08-20T13:14:38.284Z,101109.30
2018-08-20T13:17:06.599Z,101115.81
2018-08-20T13:19:34.338Z,101109.62
2018-08-20T13:22:03.083Z,101126.97
2018-08-20T13:24:31.900Z,101117.80
2018-08-20T13:26:59.645Z,101132.27
2018-08-20T13:29:28.527Z,101118.63
2018-08-20T13:31:56.314Z,101113.00
2018-08-20T13:34:24.633Z,101118.66
2018-08-20T13:36:53.539Z,101105.59
2018-08-20T13:39:21.847Z,101103.16
2018-08-20T13:41:49.593Z,101109.02
2018-08-20T13:44:17.960Z,101104.37
2018-08-20T13:46:46.856Z,101097.78
2018-08-20T13:49:15.174Z,101095.15
2018-08-20T13:51:43.494Z,101099.52
2018-08-20T13:54:11.253Z,101103.89
2018-08-20T13:56:40.163Z,101099.53
2018-08-20T13:59:08.484Z,101101.86
2018-08-20T14:01:36.218Z,101099.64
2018-08-20T14:04:04.553Z,101110.69
2018-08-20T14:06:32.863Z,101114.82
2018-08-20T14:09:01.213Z,101124.02
2018-08-20T14:11:30.115Z,101136.34
2018-08-20T14:13:58.423Z,101133.28
2018-08-20T14:16:26.737Z,101121.73
2018-08-20T14:18:55.045Z,101119.78
2018-08-20T14:21:23.375Z,101125.55
2018-08-20T14:23:51.708Z,101111.19
2018-08-20T14:26:20.037Z,101132.74
2018-08-20T14:28:47.782Z,101142.34
2018-08-20T14:31:16.679Z,101126.62
2018-08-20T14:33:44.996Z,101131.03
2018-08-20T14:36:12.740Z,101122.36
2018-08-20T14:38:41.643Z,101130.25
2018-08-20T14:41:09.969Z,101128.62
2018-08-20T14:43:38.300Z,101120.48
2018-08-20T14:46:06.037Z,101124.80
2018-08-20T14:48:34.360Z,101112.14
2018-08-20T14:51:03.252Z,101131.89
2018-08-20T14:53:31.647Z,101118.73
2018-08-20T14:55:59.900Z,101139.94
2018-08-20T14:58:28.223Z,101155.25
2018-08-20T15:00:55.980Z,101126.13
2018-08-20T15:03:24.298Z,101131.31
2018-08-20T15:05:53.193Z,101132.88
2018-08-20T15:08:21.508Z,101144.62
2018-08-20T15:10:49.838Z,101143.96
2018-08-20T15:13:18.226Z,101138.54
2018-08-20T15:15:46.883Z,101138.53
2018-08-20T15:18:16.453Z,101141.72
2018-08-20T15:20:44.844Z,101137.27
2018-08-20T15:23:13.215Z,101137.10
2018-08-20T15:25:41.566Z,101142.61
2018-08-20T15:28:09.297Z,101144.66
2018-08-20T15:30:38.234Z,101144.98
2018-08-20T15:33:06.625Z,101143.36
2018-08-20T15:35:35.001Z,101136.81
2018-08-20T15:38:03.343Z,101137.48
2018-08-20T15:40:31.675Z,101138.45
2018-08-20T15:43:00.012Z,101129.73
2018-08-20T15:45:28.412Z,101130.11
2018-08-20T15:47:56.265Z,101134.67
2018-08-20T15:50:25.240Z,101124.42
2018-08-20T15:52:53.568Z,101130.17
2018-08-20T15:55:21.934Z,101122.01
2018-08-20T15:57:50.252Z,101117.80
2018-08-20T16:00:18.028Z,101115.50
2018-08-20T16:02:47.058Z,101123.19
2018-08-20T16:05:16.113Z,101132.22
2018-08-20T16:07:45.079Z,101135.94
2018-08-20T16:10:13.404Z,101119.14
2018-08-20T16:12:41.161Z,101120.09
2018-08-20T16:15:09.545Z,101115.27
2018-08-20T16:17:37.933Z,101112.48
2018-08-20T16:20:06.840Z,101111.60
2018-08-20T16:22:35.168Z,101126.23
2018-08-20T16:25:03.565Z,101121.45
2018-08-20T16:27:31.920Z,101121.55
2018-08-20T16:30:00.326Z,101124.14
2018-08-20T16:32:28.726Z,101125.81
2018-08-20T16:34:57.045Z,101119.88
2018-08-20T16:37:24.865Z,101125.86
2018-08-20T16:39:53.845Z,101121.44
2018-08-20T16:42:22.204Z,101111.78
2018-08-20T16:44:50.590Z,101110.41
2018-08-20T16:47:18.991Z,101113.50
2018-08-20T16:49:46.750Z,101119.66
2018-08-20T16:52:15.699Z,101110.41
2018-08-20T16:54:44.415Z,101118.93
2018-08-20T16:57:12.284Z,101119.34
2018-08-20T16:59:41.278Z,101130.73
2018-08-20T17:02:09.595Z,101119.66
2018-08-20T17:04:38.310Z,101132.54
2018-08-20T17:07:06.408Z,101127.16
2018-08-20T17:09:34.987Z,101140.44
2018-08-20T17:12:03.917Z,101134.89
2018-08-20T17:14:32.631Z,101137.20
2018-08-20T17:17:01.015Z,101141.00
2018-08-20T17:19:28.726Z,101145.20
2018-08-20T17:21:57.127Z,101152.33
2018-08-20T17:24:26.041Z,101153.86
2018-08-20T17:26:54.399Z,101173.06
2018-08-20T17:29:22.921Z,101167.64
2018-08-20T17:31:51.255Z,101155.66
2018-08-20T17:34:18.978Z,101164.49
2018-08-20T17:36:47.409Z,101163.70
2018-08-20T17:39:16.302Z,101162.20
2018-08-20T17:41:44.617Z,101169.61
2018-08-20T17:44:13.012Z,101173.82
2018-08-20T17:46:41.330Z,101177.80
2018-08-20T17:49:09.659Z,101172.36
2018-08-20T17:51:37.998Z,101169.39
2018-08-20T17:54:06.319Z,101169.03
2018-08-20T17:56:34.634Z,101180.70
2018-08-20T17:59:02.948Z,101183.64
2018-08-20T18:01:31.848Z,101184.81
2018-08-20T18:03:59.004Z,101180.33
2018-08-20T18:06:27.896Z,101179.80
2018-08-20T18:08:57.257Z,101180.36
2018-08-20T18:11:25.593Z,101199.33
2018-08-20T18:13:53.908Z,101180.88
2018-08-20T18:16:21.645Z,101182.72
2018-08-20T18:18:50.558Z,101178.92
2018-08-20T18:21:19.101Z,101189.45
2018-08-20T18:23:47.207Z,101185.13
2018-08-20T18:26:15.525Z,101180.04
2018-08-20T18:28:43.263Z,101184.99
2018-08-20T18:31:11.607Z,101198.38
2018-08-20T18:33:39.926Z,101198.91
2018-08-20T18:36:08.831Z,101200.78
2018-08-20T18:38:36.576Z,101196.56
2018-08-20T18:41:04.899Z,101199.11
2018-08-20T18:43:33.807Z,101196.55
2018-08-20T18:46:01.526Z,101200.29
2018-08-20T18:48:30.419Z,101205.05
2018-08-20T18:50:58.745Z,101187.05
2018-08-20T18:53:27.066Z,101203.13
2018-08-20T18:55:54.803Z,101211.55
2018-08-20T18:58:23.120Z,101209.03
2018-08-20T19:00:52.021Z,101208.75
2018-08-20T19:03:20.347Z,101207.92
2018-08-20T19:05:48.611Z,101207.26
2018-08-20T19:08:16.984Z,101210.30
2018-08-20T19:10:45.378Z,101215.77
2018-08-20T19:13:13.795Z,101210.89
2018-08-20T19:15:42.360Z,101219.08
2018-08-20T19:18:09.876Z,101226.16
2018-08-20T19:20:38.789Z,101227.68
2018-08-20T19:23:07.144Z,101232.18
2018-08-20T19:25:35.489Z,101231.98
2018-08-20T19:28:03.816Z,101234.73
2018-08-20T19:30:32.127Z,101229.20
2018-08-20T19:33:00.527Z,101231.47
2018-08-20T19:35:28.910Z,101234.93
2018-08-20T19:37:59.570Z,101236.02
2018-08-20T19:40:25.879Z,101241.08
2018-08-20T19:42:56.180Z,101244.70
2018-08-20T19:45:27.968Z,101249.62
2018-08-20T19:47:56.367Z,101243.03
2018-08-20T19:50:24.991Z,101244.22
2018-08-20T19:52:52.729Z,101243.03
2018-08-20T19:55:21.225Z,101249.30
2018-08-20T19:57:50.435Z,101243.25
2018-08-20T20:00:18.496Z,101241.89
2018-08-20T20:02:46.244Z,101241.23
2018-08-20T20:05:15.237Z,101242.22
2018-08-20T20:07:43.578Z,101244.72
2018-08-20T20:10:13.331Z,101245.84
2018-08-20T20:12:40.395Z,101259.60
2018-08-20T20:15:08.821Z,101241.03
2018-08-20T20:17:37.195Z,101242.11
2018-08-20T20:20:05.533Z,101244.16
2018-08-20T20:22:33.329Z,101245.48
2018-08-20T20:25:02.304Z,101242.85
2018-08-20T20:27:30.784Z,101247.44
2018-08-20T20:29:58.880Z,101248.47
2018-08-20T20:32:27.239Z,101251.06
2018-08-20T20:34:55.220Z,101247.88
2018-08-20T20:37:24.054Z,101254.48
2018-08-20T20:39:51.858Z,101260.59
2018-08-20T20:42:20.818Z,101268.05
2018-08-20T20:44:48.589Z,101263.84
2018-08-20T20:47:17.599Z,101257.61
2018-08-20T20:49:45.930Z,101263.11
2018-08-20T20:52:14.251Z,101266.70
2018-08-20T20:54:43.378Z,101268.63
2018-08-20T20:57:11.713Z,101264.73
2018-08-20T20:59:39.466Z,101265.31
2018-08-20T21:02:07.785Z,101266.62
2018-08-20T21:04:36.687Z,101260.11
2018-08-20T21:07:04.998Z,101271.05
2018-08-20T21:09:33.319Z,101271.08
2018-08-20T21:12:01.069Z,101267.75
2018-08-20T21:14:29.394Z,101263.42
2018-08-20T21:16:57.721Z,101272.56
2018-08-20T21:19:26.043Z,101266.58
2018-08-20T21:21:54.370Z,101276.06
2018-08-20T21:24:23.315Z,101274.27
2018-08-20T21:26:51.019Z,101269.73
2018-08-20T21:29:19.950Z,101267.77
2018-08-20T21:31:48.274Z,101276.41
2018-08-20T21:34:16.657Z,101273.56
2018-08-20T21:36:45.004Z,101279.67
2018-08-20T21:39:13.398Z,101288.35
2018-08-20T21:41:41.716Z,101288.27
2018-08-20T21:44:10.026Z,101291.88
2018-08-20T21:46:38.343Z,101292.72
2018-08-20T21:49:06.075Z,101287.20
2018-08-20T21:51:34.390Z,101296.12
2018-08-20T21:54:02.707Z,101299.08
2018-08-20T21:56:31.024Z,101301.26
2018-08-20T21:58:59.933Z,101306.70
2018-08-20T22:01:27.666Z,101297.50
2018-08-20T22:03:56.561Z,101304.03
2018-08-20T22:06:24.869Z,101302.80
2018-08-20T22:08:53.192Z,101305.40
2018-08-20T22:11:20.935Z,101301.28
2018-08-20T22:13:49.268Z,101300.25
2018-08-20T22:16:18.173Z,101303.98
2018-08-20T22:18:46.494Z,101304.69
2018-08-20T22:21:14.813Z,101303.19
2018-08-20T22:23:42.546Z,101310.57
2018-08-20T22:26:10.877Z,101312.78
2018-08-20T22:28:39.821Z,101312.25
2018-08-20T22:31:13.520Z,101308.83
2018-08-20T22:33:47.235Z,101315.66
2018-08-20T22:36:20.966Z,101313.38
2018-08-20T22:38:54.703Z,101314.47
2018-08-20T22:41:23.097Z,101317.83
2018-08-20T22:43:50.826Z,101316.16
2018-08-20T22:46:19.744Z,101322.52
2018-08-20T22:48:47.470Z,101322.05
2018-08-20T22:51:16.359Z,101322.51
2018-08-20T22:53:44.677Z,101321.31
2018-08-20T22:56:12.996Z,101321.59
2018-08-20T22:58:40.734Z,101310.31
2018-08-20T23:01:09.622Z,101315.66
2018-08-20T23:03:37.361Z,101314.84
2018-08-20T23:06:06.265Z,101312.09
2018-08-20T23:08:33.994Z,101316.12
2018-08-20T23:11:02.931Z,101314.97
2018-08-20T23:13:36.644Z,101318.44
2018-08-20T23:16:10.374Z,101315.72
2018-08-20T23:18:44.162Z,101315.27
2018-08-20T23:21:17.935Z,101313.52
2018-08-20T23:23:51.628Z,101311.39
2018-08-20T23:26:19.394Z,101317.45
2018-08-20T23:28:47.712Z,101314.86
2018-08-20T23:31:16.029Z,101321.42
2018-08-20T23:33:44.925Z,101325.60
2018-08-20T23:36:12.653Z,101325.25
2018-08-20T23:38:41.545Z,101322.75
2018-08-20T23:41:09.293Z,101332.08
2018-08-20T23:43:38.201Z,101334.47
2018-08-20T23:46:06.516Z,101334.37
2018-08-20T23:48:34.722Z,101335.63
2018-08-20T23:51:03.153Z,101335.84
2018-08-20T23:53:30.877Z,101337.77
2018-08-20T23:55:59.791Z,101336.99
2018-08-20T23:58:28.131Z,101334.11
